createdAt,value
2022-09-17T00:01:02.074Z,11.00
2022-09-17T00:03:31.004Z,10.95
2022-09-17T00:06:03.745Z,10.99
2022-09-17T00:08:31.746Z,10.94
2022-09-17T00:11:00.021Z,10.92
2022-09-17T00:13:28.133Z,11.01
2022-09-17T00:15:56.723Z,10.96
2022-09-17T00:18:25.008Z,11.01
2022-09-17T00:20:52.898Z,10.96
2022-09-17T00:23:22.201Z,10.89
2022-09-17T00:25:50.291Z,10.90
2022-09-17T00:28:19.219Z,10.94
2022-09-17T00:30:48.270Z,10.91
2022-09-17T00:33:18.097Z,10.92
2022-09-17T00:35:46.033Z,10.95
2022-09-17T00:38:14.046Z,10.98
2022-09-17T00:40:43.444Z,10.90
2022-09-17T00:43:13.411Z,10.97
2022-09-17T00:45:42.130Z,10.93
2022-09-17T00:48:12.438Z,10.91
2022-09-17T00:50:42.057Z,10.94
2022-09-17T00:53:15.863Z,10.90
2022-09-17T00:55:49.972Z,10.94
2022-09-17T00:58:20.208Z,10.94
2022-09-17T01:00:50.696Z,10.95
2022-09-17T01:04:19.727Z,10.98
2022-09-17T01:06:55.383Z,10.93
2022-09-17T01:09:31.020Z,10.88
2022-09-17T01:12:18.343Z,10.93
2022-09-17T01:14:57.164Z,10.90
2022-09-17T01:17:30.954Z,10.88
2022-09-17T01:20:42.147Z,10.83
2022-09-17T01:23:31.056Z,10.76
2022-09-17T01:26:14.458Z,10.68
2022-09-17T01:28:49.339Z,10.69
2022-09-17T01:31:33.899Z,10.64
2022-09-17T01:34:06.421Z,10.58
2022-09-17T01:36:51.185Z,10.52
2022-09-17T01:39:30.711Z,10.51
2022-09-17T01:42:08.932Z,10.45
2022-09-17T01:44:40.879Z,10.41
2022-09-17T01:47:15.715Z,10.37
2022-09-17T01:49:45.985Z,10.39
2022-09-17T01:52:16.431Z,10.33
2022-09-17T01:54:47.467Z,10.32
2022-09-17T01:57:18.703Z,10.33
2022-09-17T01:59:51.302Z,10.26
2022-09-17T02:02:25.363Z,10.23
2022-09-17T02:04:57.057Z,10.19
2022-09-17T02:07:25.967Z,10.16
2022-09-17T02:09:57.870Z,10.22
2022-09-17T02:12:30.269Z,10.15
2022-09-17T02:15:02.463Z,10.14
2022-09-17T02:17:34.588Z,10.14
2022-09-17T02:20:02.796Z,10.17
2022-09-17T02:22:36.278Z,10.11
2022-09-17T02:25:07.672Z,10.07
2022-09-17T02:27:46.202Z,10.11
2022-09-17T02:30:16.250Z,10.04
2022-09-17T02:32:46.581Z,9.99
2022-09-17T02:35:15.358Z,10.02
2022-09-17T02:37:44.622Z,9.98
2022-09-17T02:40:14.573Z,9.91
2022-09-17T02:42:59.649Z,9.90
2022-09-17T02:45:36.979Z,9.85
2022-09-17T02:48:19.019Z,9.86
2022-09-17T02:51:07.459Z,9.79
2022-09-17T02:53:41.161Z,9.75
2022-09-17T02:56:20.512Z,9.79
2022-09-17T02:58:53.839Z,9.79
2022-09-17T03:01:26.825Z,9.79
2022-09-17T03:03:57.103Z,9.81
2022-09-17T03:06:25.022Z,9.82
2022-09-17T03:08:53.491Z,9.85
2022-09-17T03:11:22.550Z,9.75
2022-09-17T03:13:50.958Z,9.70
2022-09-17T03:16:20.105Z,9.79
2022-09-17T03:18:47.959Z,9.72
2022-09-17T03:21:17.669Z,9.65
2022-09-17T03:23:45.640Z,9.64
2022-09-17T03:26:13.750Z,9.69
2022-09-17T03:28:43.604Z,9.68
2022-09-17T03:31:13.563Z,9.74
2022-09-17T03:33:42.378Z,9.72
2022-09-17T03:37:11.503Z,9.69
2022-09-17T03:39:41.077Z,9.74
2022-09-17T03:42:10.171Z,9.66
2022-09-17T03:44:38.525Z,9.73
2022-09-17T03:47:08.980Z,9.74
2022-09-17T03:49:38.091Z,9.68
2022-09-17T03:52:06.078Z,9.65
2022-09-17T03:54:33.931Z,9.57
2022-09-17T03:57:03.425Z,9.61
2022-09-17T03:59:31.712Z,9.57
2022-09-17T04:01:59.582Z,9.54
2022-09-17T04:04:27.287Z,9.72
2022-09-17T04:06:55.932Z,9.72
2022-09-17T04:09:23.501Z,9.64
2022-09-17T04:11:51.222Z,9.77
2022-09-17T04:14:20.497Z,9.67
2022-09-17T04:16:48.372Z,9.66
2022-09-17T04:19:17.576Z,9.62
2022-09-17T04:21:46.155Z,9.69
2022-09-17T04:24:13.817Z,9.71
2022-09-17T04:26:42.286Z,9.70
2022-09-17T04:29:10.579Z,9.69
2022-09-17T04:31:40.221Z,9.61
2022-09-17T04:34:08.761Z,9.57
2022-09-17T04:36:37.218Z,9.61
2022-09-17T04:39:05.003Z,9.68
2022-09-17T04:41:34.456Z,9.70
2022-09-17T04:44:03.226Z,9.76
2022-09-17T04:46:32.014Z,9.77
2022-09-17T04:49:01.102Z,9.67
2022-09-17T04:51:29.529Z,9.83
2022-09-17T04:53:59.363Z,9.73
2022-09-17T04:56:27.277Z,9.75
2022-09-17T04:58:55.784Z,9.71
2022-09-17T05:01:23.749Z,9.70
2022-09-17T05:03:51.600Z,9.74
2022-09-17T05:06:24.681Z,9.71
2022-09-17T05:08:54.606Z,9.65
2022-09-17T05:11:22.343Z,9.70
2022-09-17T05:13:50.806Z,9.66
2022-09-17T05:16:18.894Z,9.80
2022-09-17T05:18:47.748Z,9.69
2022-09-17T05:21:15.688Z,9.65
2022-09-17T05:23:48.513Z,9.68
2022-09-17T05:26:16.604Z,9.82
2022-09-17T05:28:44.663Z,9.74
2022-09-17T05:31:14.698Z,9.80
2022-09-17T05:33:42.495Z,9.82
2022-09-17T05:36:11.798Z,9.86
2022-09-17T05:38:40.295Z,9.87
2022-09-17T05:41:09.566Z,9.90
2022-09-17T05:43:38.693Z,9.95
2022-09-17T05:46:07.545Z,9.92
2022-09-17T05:48:35.791Z,9.89
2022-09-17T05:51:04.512Z,9.95
2022-09-17T05:54:36.585Z,9.94
2022-09-17T05:57:06.397Z,9.98
2022-09-17T05:59:36.133Z,10.01
2022-09-17T06:02:05.217Z,9.94
2022-09-17T06:04:35.099Z,10.03
2022-09-17T06:08:04.267Z,9.99
2022-09-17T06:10:33.140Z,9.99
2022-09-17T06:13:02.716Z,10.03
2022-09-17T06:15:30.796Z,9.99
2022-09-17T06:17:58.723Z,10.03
2022-09-17T06:20:26.614Z,10.02
2022-09-17T06:22:59.102Z,10.03
2022-09-17T06:25:29.434Z,10.08
2022-09-17T06:27:57.677Z,10.14
2022-09-17T06:30:27.019Z,10.15
2022-09-17T06:32:56.771Z,10.24
2022-09-17T06:35:24.734Z,10.39
2022-09-17T06:37:54.145Z,10.43
2022-09-17T06:40:23.871Z,10.52
2022-09-17T06:42:51.980Z,10.55
2022-09-17T06:45:23.339Z,10.64
2022-09-17T06:47:52.466Z,10.77
2022-09-17T06:50:20.246Z,10.85
2022-09-17T06:52:50.947Z,11.08
2022-09-17T06:55:21.559Z,11.18
2022-09-17T06:57:49.544Z,11.46
2022-09-17T07:00:18.011Z,11.49
2022-09-17T07:02:56.316Z,11.46
2022-09-17T07:05:24.774Z,11.41
2022-09-17T07:07:53.775Z,11.53
2022-09-17T07:10:23.500Z,11.45
2022-09-17T07:12:52.205Z,11.49
2022-09-17T07:15:21.399Z,11.60
2022-09-17T07:17:49.265Z,11.64
2022-09-17T07:20:20.495Z,11.80
2022-09-17T07:22:56.885Z,11.98
2022-09-17T07:25:26.497Z,11.73
2022-09-17T07:27:54.689Z,11.75
2022-09-17T07:30:23.535Z,11.71
2022-09-17T07:32:51.931Z,11.68
2022-09-17T07:35:22.063Z,11.77
2022-09-17T07:37:50.818Z,11.85
2022-09-17T07:40:18.720Z,11.87
2022-09-17T07:42:47.497Z,12.01
2022-09-17T07:45:17.434Z,12.19
2022-09-17T07:47:46.147Z,12.25
2022-09-17T07:50:13.988Z,12.32
2022-09-17T07:52:47.684Z,12.19
2022-09-17T07:58:56.781Z,12.35
2022-09-17T08:01:27.239Z,12.41
2022-09-17T08:03:55.602Z,12.40
2022-09-17T08:06:25.979Z,12.56
2022-09-17T08:08:58.227Z,12.72
2022-09-17T08:11:54.538Z,12.75
2022-09-17T08:14:17.859Z,12.77
2022-09-17T08:16:47.254Z,12.85
2022-09-17T08:19:15.752Z,12.75
2022-09-17T08:21:43.541Z,12.75
2022-09-17T08:24:13.774Z,12.97
2022-09-17T08:26:41.742Z,13.08
2022-09-17T08:29:11.450Z,13.07
2022-09-17T08:31:41.756Z,13.10
2022-09-17T08:34:10.593Z,13.11
2022-09-17T08:36:39.967Z,13.05
2022-09-17T08:39:08.234Z,13.18
2022-09-17T08:41:46.630Z,13.25
2022-09-17T08:44:22.785Z,13.40
2022-09-17T08:46:53.115Z,13.28
2022-09-17T08:49:33.799Z,13.87
2022-09-17T08:52:15.473Z,13.66
2022-09-17T08:54:49.043Z,13.71
2022-09-17T08:57:26.961Z,13.77
2022-09-17T08:59:58.446Z,13.75
2022-09-17T09:02:39.457Z,13.79
2022-09-17T09:05:13.358Z,13.84
2022-09-17T09:07:44.454Z,13.85
2022-09-17T09:10:17.931Z,13.98
2022-09-17T09:12:47.304Z,14.37
2022-09-17T09:15:33.376Z,14.33
2022-09-17T09:18:06.441Z,13.96
2022-09-17T09:20:42.862Z,14.00
2022-09-17T09:23:18.818Z,14.17
2022-09-17T09:25:55.274Z,14.09
2022-09-17T09:28:39.760Z,14.36
2022-09-17T09:31:20.717Z,14.02
2022-09-17T09:33:50.309Z,14.04
2022-09-17T09:36:22.211Z,14.41
2022-09-17T09:38:56.688Z,14.30
2022-09-17T09:41:28.572Z,14.24
2022-09-17T09:44:10.617Z,14.24
2022-09-17T09:46:51.672Z,14.59
2022-09-17T09:49:30.578Z,14.70
2022-09-17T09:52:08.887Z,15.06
2022-09-17T09:54:46.771Z,14.54
2022-09-17T09:57:16.547Z,14.74
2022-09-17T09:59:45.694Z,14.81
2022-09-17T10:02:14.717Z,14.84
2022-09-17T10:04:43.614Z,15.13
2022-09-17T10:07:12.416Z,15.01
2022-09-17T10:09:46.824Z,15.06
2022-09-17T10:12:19.673Z,14.95
2022-09-17T10:14:49.110Z,14.77
2022-09-17T10:17:22.316Z,14.15
2022-09-17T10:20:16.481Z,12.12
2022-09-17T10:22:48.869Z,11.73
2022-09-17T10:25:28.694Z,11.32
2022-09-17T10:27:58.778Z,11.32
2022-09-17T10:30:28.370Z,11.67
2022-09-17T10:33:19.459Z,12.23
2022-09-17T10:36:00.038Z,12.64
2022-09-17T10:38:30.797Z,13.09
2022-09-17T10:41:17.678Z,13.50
2022-09-17T10:43:46.105Z,13.69
2022-09-17T10:46:21.896Z,14.06
2022-09-17T10:48:59.750Z,13.92
2022-09-17T10:51:27.946Z,14.30
2022-09-17T10:54:15.099Z,14.75
2022-09-17T10:56:49.092Z,14.51
2022-09-17T10:59:35.125Z,14.12
2022-09-17T11:02:18.870Z,14.50
2022-09-17T11:04:53.193Z,14.55
2022-09-17T11:07:35.466Z,14.88
2022-09-17T11:10:11.061Z,14.86
2022-09-17T11:12:47.222Z,14.96
2022-09-17T11:15:27.625Z,14.89
2022-09-17T11:18:22.812Z,15.15
2022-09-17T11:21:20.113Z,15.37
2022-09-17T11:24:08.185Z,15.47
2022-09-17T11:26:40.580Z,15.57
2022-09-17T11:29:25.584Z,15.71
2022-09-17T11:31:59.547Z,15.52
2022-09-17T11:34:35.029Z,15.29
2022-09-17T11:37:10.321Z,15.50
2022-09-17T11:39:49.554Z,15.05
2022-09-17T11:42:20.386Z,15.52
2022-09-17T11:44:52.700Z,15.33
2022-09-17T11:47:27.310Z,15.07
2022-09-17T11:49:59.932Z,15.12
2022-09-17T11:52:29.948Z,15.40
2022-09-17T11:54:59.887Z,15.25
2022-09-17T11:57:29.263Z,16.05
2022-09-17T12:00:03.160Z,15.46
2022-09-17T12:02:44.079Z,15.72
2022-09-17T12:05:22.190Z,15.57
2022-09-17T12:07:55.632Z,15.98
2022-09-17T12:10:35.765Z,15.96
2022-09-17T12:13:16.383Z,16.10
2022-09-17T12:15:52.346Z,16.17
2022-09-17T12:18:32.939Z,15.95
2022-09-17T12:21:05.305Z,16.07
2022-09-17T12:23:40.181Z,16.07
2022-09-17T12:26:17.955Z,15.78
2022-09-17T12:28:52.125Z,15.26
2022-09-17T12:31:25.791Z,14.09
2022-09-17T12:33:59.917Z,12.50
2022-09-17T12:36:40.352Z,11.56
2022-09-17T12:39:31.736Z,11.03
2022-09-17T12:42:06.762Z,10.92
2022-09-17T12:44:49.390Z,11.15
2022-09-17T12:47:32.664Z,11.28
2022-09-17T12:50:15.769Z,11.84
2022-09-17T12:52:57.595Z,12.19
2022-09-17T12:55:41.914Z,12.41
2022-09-17T12:58:20.452Z,12.81
2022-09-17T13:00:51.777Z,13.18
2022-09-17T13:04:29.690Z,13.95
2022-09-17T13:11:03.107Z,14.62
2022-09-17T13:13:39.075Z,15.35
2022-09-17T13:16:15.555Z,16.01
2022-09-17T13:19:15.014Z,16.49
2022-09-17T13:21:49.820Z,17.18
2022-09-17T13:24:18.604Z,16.36
2022-09-17T13:26:48.732Z,15.53
2022-09-17T13:29:50.114Z,11.08
2022-09-17T13:32:47.795Z,10.29
2022-09-17T13:35:50.758Z,10.65
2022-09-17T13:38:23.957Z,10.75
2022-09-17T13:41:21.265Z,10.60
2022-09-17T13:43:55.874Z,10.66
2022-09-17T13:46:24.473Z,10.85
2022-09-17T13:48:57.787Z,13.21
2022-09-17T13:51:57.755Z,14.00
2022-09-17T13:54:38.648Z,14.55
2022-09-17T13:57:15.490Z,15.36
2022-09-17T14:00:00.139Z,15.98
2022-09-17T14:02:32.253Z,16.45
2022-09-17T14:05:28.303Z,16.71
2022-09-17T14:08:12.924Z,15.20
2022-09-17T14:10:49.789Z,13.80
2022-09-17T14:13:52.447Z,13.47
2022-09-17T14:16:50.281Z,13.11
2022-09-17T14:19:27.001Z,16.50
2022-09-17T14:22:00.736Z,14.55
2022-09-17T14:24:36.940Z,13.85
2022-09-17T14:27:12.254Z,15.42
2022-09-17T14:30:02.825Z,14.66
2022-09-17T14:32:34.412Z,16.41
2022-09-17T14:35:02.799Z,15.03
2022-09-17T14:37:32.712Z,14.26
2022-09-17T14:40:00.741Z,14.32
2022-09-17T14:42:35.564Z,13.57
2022-09-17T14:45:06.223Z,18.08
2022-09-17T14:47:35.506Z,17.21
2022-09-17T14:50:21.586Z,15.75
2022-09-17T14:52:51.374Z,15.55
2022-09-17T14:55:23.975Z,13.98
2022-09-17T14:57:53.884Z,13.22
2022-09-17T15:00:24.570Z,11.74
2022-09-17T15:02:55.825Z,11.55
2022-09-17T15:06:25.128Z,11.51
2022-09-17T15:08:58.735Z,11.69
2022-09-17T15:11:26.347Z,11.66
2022-09-17T15:13:54.172Z,11.50
2022-09-17T15:16:25.550Z,11.55
2022-09-17T15:18:56.236Z,11.69
2022-09-17T15:21:32.312Z,13.88
2022-09-17T15:24:02.177Z,16.66
2022-09-17T15:26:34.734Z,17.28
2022-09-17T15:29:03.303Z,16.01
2022-09-17T15:31:32.966Z,16.32
2022-09-17T15:34:06.522Z,18.01
2022-09-17T15:36:36.107Z,17.40
2022-09-17T15:39:29.766Z,17.42
2022-09-17T15:41:58.633Z,16.25
2022-09-17T15:44:31.675Z,16.05
2022-09-17T15:50:55.914Z,16.44
2022-09-17T15:53:26.860Z,17.71
2022-09-17T15:56:05.074Z,16.92
2022-09-17T15:58:37.100Z,16.04
2022-09-17T16:01:48.030Z,15.55
2022-09-17T16:04:27.581Z,13.75
2022-09-17T16:07:03.396Z,13.34
2022-09-17T16:09:47.087Z,13.13
2022-09-17T16:12:18.365Z,13.02
2022-09-17T16:14:49.372Z,15.86
2022-09-17T16:17:40.054Z,15.45
2022-09-17T16:20:10.999Z,14.77
2022-09-17T16:22:40.475Z,13.66
2022-09-17T16:25:09.104Z,13.33
2022-09-17T16:27:45.905Z,13.22
2022-09-17T16:30:16.823Z,13.90
2022-09-17T16:32:45.508Z,13.33
2022-09-17T16:35:17.248Z,13.20
2022-09-17T16:37:51.319Z,13.03
2022-09-17T16:40:19.648Z,12.93
2022-09-17T16:42:48.319Z,12.73
2022-09-17T16:45:17.215Z,12.63
2022-09-17T16:48:49.658Z,12.60
2022-09-17T16:51:17.806Z,12.60
2022-09-17T16:53:50.096Z,12.63
2022-09-17T16:56:19.793Z,12.80
2022-09-17T16:58:48.793Z,12.93
2022-09-17T17:01:17.265Z,12.85
2022-09-17T17:03:49.133Z,12.85
2022-09-17T17:06:17.494Z,12.75
2022-09-17T17:08:45.538Z,12.67
2022-09-17T17:11:15.148Z,12.59
2022-09-17T17:13:43.190Z,12.47
2022-09-17T17:17:15.524Z,12.41
2022-09-17T17:19:46.068Z,12.33
2022-09-17T17:22:16.045Z,12.28
2022-09-17T17:24:44.821Z,12.22
2022-09-17T17:27:16.053Z,12.18
2022-09-17T17:29:44.214Z,12.07
2022-09-17T17:32:13.004Z,11.97
2022-09-17T17:34:41.255Z,11.86
2022-09-17T17:37:09.768Z,11.87
2022-09-17T17:39:38.496Z,11.83
2022-09-17T17:42:07.032Z,11.78
2022-09-17T17:45:36.322Z,11.80
2022-09-17T17:48:05.711Z,11.78
2022-09-17T17:50:33.907Z,11.67
2022-09-17T17:53:02.492Z,11.73
2022-09-17T17:55:36.184Z,11.64
2022-09-17T17:58:04.941Z,11.62
2022-09-17T18:00:34.683Z,11.64
2022-09-17T18:03:02.682Z,11.54
2022-09-17T18:05:31.922Z,11.54
2022-09-17T18:08:00.350Z,11.52
2022-09-17T18:10:29.499Z,11.44
2022-09-17T18:12:57.523Z,11.35
2022-09-17T18:15:26.947Z,11.56
2022-09-17T18:17:54.795Z,11.50
2022-09-17T18:20:23.136Z,11.71
2022-09-17T18:22:56.763Z,11.69
2022-09-17T18:25:25.480Z,11.79
2022-09-17T18:27:54.403Z,11.76
2022-09-17T18:30:22.792Z,11.65
2022-09-17T18:32:50.436Z,11.72
2022-09-17T18:35:20.514Z,11.75
2022-09-17T18:37:48.677Z,11.73
2022-09-17T18:40:18.470Z,11.82
2022-09-17T18:42:47.005Z,11.88
2022-09-17T18:45:15.998Z,11.86
2022-09-17T18:47:45.494Z,11.83
2022-09-17T18:50:14.326Z,11.84
2022-09-17T18:52:43.120Z,11.72
2022-09-17T18:55:12.050Z,11.56
2022-09-17T18:57:41.723Z,11.54
2022-09-17T19:00:11.667Z,11.47
2022-09-17T19:02:40.299Z,11.39
2022-09-17T19:05:09.095Z,11.45
2022-09-17T19:07:41.390Z,11.37
2022-09-17T19:10:09.947Z,11.36
2022-09-17T19:12:39.490Z,11.38
2022-09-17T19:15:11.624Z,11.34
2022-09-17T19:17:40.462Z,11.35
2022-09-17T19:20:09.334Z,11.38
2022-09-17T19:22:38.643Z,11.42
2022-09-17T19:25:08.395Z,11.43
2022-09-17T19:27:36.236Z,11.45
2022-09-17T19:30:05.827Z,11.55
2022-09-17T19:32:35.659Z,11.51
2022-09-17T19:35:04.198Z,11.51
2022-09-17T19:37:32.401Z,11.49
2022-09-17T19:40:00.963Z,11.57
2022-09-17T19:42:29.139Z,11.57
2022-09-17T19:44:57.892Z,11.56
2022-09-17T19:48:27.194Z,11.52
2022-09-17T19:50:58.360Z,11.45
2022-09-17T19:53:26.821Z,11.28
2022-09-17T19:55:54.834Z,11.32
2022-09-17T19:58:23.195Z,11.31
2022-09-17T20:00:56.433Z,11.35
2022-09-17T20:03:24.742Z,11.28
2022-09-17T20:06:00.844Z,11.27
2022-09-17T20:08:30.514Z,11.18
2022-09-17T20:11:05.599Z,11.26
2022-09-17T20:13:35.612Z,11.35
2022-09-17T20:16:07.846Z,11.33
2022-09-17T20:18:37.618Z,11.32
2022-09-17T20:21:10.238Z,11.35
2022-09-17T20:23:38.946Z,11.38
2022-09-17T20:26:07.134Z,11.36
2022-09-17T20:28:35.855Z,11.44
2022-09-17T20:31:05.556Z,11.49
2022-09-17T20:33:34.182Z,11.54
2022-09-17T20:36:03.641Z,11.61
2022-09-17T20:41:23.552Z,11.70
2022-09-17T20:43:54.124Z,11.73
2022-09-17T20:46:28.640Z,11.66
2022-09-17T20:48:58.421Z,11.63
2022-09-17T20:51:28.770Z,11.62
2022-09-17T20:53:59.539Z,11.65
2022-09-17T20:56:30.393Z,11.65
2022-09-17T20:59:04.003Z,11.64
2022-09-17T21:01:34.764Z,11.57
2022-09-17T21:04:03.713Z,11.62
2022-09-17T21:06:33.164Z,11.53
2022-09-17T21:09:05.888Z,11.51
2022-09-17T21:11:33.720Z,11.45
2022-09-17T21:14:02.073Z,11.40
2022-09-17T21:16:31.543Z,11.44
2022-09-17T21:19:03.510Z,11.44
2022-09-17T21:21:34.321Z,11.46
2022-09-17T21:24:04.770Z,11.45
2022-09-17T21:26:35.597Z,11.47
2022-09-17T21:29:04.027Z,11.49
2022-09-17T21:31:34.265Z,11.45
2022-09-17T21:34:04.407Z,11.47
2022-09-17T21:36:34.792Z,11.47
2022-09-17T21:39:05.922Z,11.49
2022-09-17T21:41:40.085Z,11.47
2022-09-17T21:44:11.845Z,11.42
2022-09-17T21:46:42.298Z,11.42
2022-09-17T21:49:11.104Z,11.43
2022-09-17T21:51:41.305Z,11.44
2022-09-17T21:54:12.332Z,11.45
2022-09-17T21:56:41.281Z,11.44
2022-09-17T21:59:11.053Z,11.47
2022-09-17T22:01:41.418Z,11.49
2022-09-17T22:07:50.345Z,11.46
2022-09-17T22:10:20.324Z,11.46
2022-09-17T22:12:48.191Z,11.43
2022-09-17T22:15:16.301Z,11.43
2022-09-17T22:17:44.661Z,11.40
2022-09-17T22:20:12.737Z,11.47
2022-09-17T22:22:40.469Z,11.44
2022-09-17T22:25:09.825Z,11.38
2022-09-17T22:27:50.288Z,11.39
2022-09-17T22:30:26.476Z,11.39
2022-09-17T22:32:54.575Z,11.39
2022-09-17T22:35:31.809Z,11.34
2022-09-17T22:37:59.757Z,11.33
2022-09-17T22:40:28.078Z,11.33
2022-09-17T22:42:58.421Z,11.32
2022-09-17T22:45:26.841Z,11.38
2022-09-17T22:47:54.905Z,11.32
2022-09-17T22:50:22.742Z,11.32
2022-09-17T22:52:50.723Z,11.31
2022-09-17T22:55:18.624Z,11.27
2022-09-17T22:57:46.476Z,11.28
2022-09-17T23:00:17.570Z,11.26
2022-09-17T23:02:45.200Z,11.26
2022-09-17T23:06:17.379Z,11.18
2022-09-17T23:08:45.363Z,11.19
2022-09-17T23:11:18.996Z,11.20
2022-09-17T23:13:47.178Z,11.24
2022-09-17T23:16:16.896Z,11.17
2022-09-17T23:18:44.920Z,11.18
2022-09-17T23:21:15.182Z,11.16
2022-09-17T23:23:45.438Z,11.07
2022-09-17T23:26:16.672Z,11.07
2022-09-17T23:28:45.233Z,11.05
2022-09-17T23:31:14.661Z,10.98
2022-09-17T23:33:45.250Z,10.93
2022-09-17T23:36:15.416Z,10.92
2022-09-17T23:38:44.672Z,10.92
2022-09-17T23:41:17.254Z,10.95
2022-09-17T23:43:47.790Z,10.91
2022-09-17T23:46:16.767Z,10.97
2022-09-17T23:48:51.301Z,10.97
2022-09-17T23:51:21.021Z,10.93
2022-09-17T23:53:49.732Z,10.90
2022-09-17T23:56:19.856Z,10.93
2022-09-17T23:58:48.340Z,10.94
